sensor_id;sensor_type;location;lat;lon;timestamp;temperature;humidity
70851;DHT22;58475;49.662;9.636;2023-05-25T00:00:42;7.71;84.29
70851;DHT22;58475;49.662;9.636;2023-05-25T00:03:07;7.50;85.37
70851;DHT22;58475;49.662;9.636;2023-05-25T00:05:34;7.50;85.18
70851;DHT22;58475;49.662;9.636;2023-05-25T00:08:00;7.71;85.20
70851;DHT22;58475;49.662;9.636;2023-05-25T00:10:25;7.71;85.24
70851;DHT22;58475;49.662;9.636;2023-05-25T00:12:50;7.70;85.08
70851;DHT22;58475;49.662;9.636;2023-05-25T00:15:16;7.64;85.44
70851;DHT22;58475;49.662;9.636;2023-05-25T00:17:41;7.63;85.27
70851;DHT22;58475;49.662;9.636;2023-05-25T00:20:07;7.73;84.95
70851;DHT22;58475;49.662;9.636;2023-05-25T00:22:34;7.63;84.85
70851;DHT22;58475;49.662;9.636;2023-05-25T00:25:00;7.57;85.47
70851;DHT22;58475;49.662;9.636;2023-05-25T00:27:25;7.44;85.76
70851;DHT22;58475;49.662;9.636;2023-05-25T00:29:51;7.26;85.96
70851;DHT22;58475;49.662;9.636;2023-05-25T00:32:17;7.15;85.89
70851;DHT22;58475;49.662;9.636;2023-05-25T00:34:44;7.29;86.09
70851;DHT22;58475;49.662;9.636;2023-05-25T00:37:10;7.34;86.17
70851;DHT22;58475;49.662;9.636;2023-05-25T00:39:35;7.63;85.54
70851;DHT22;58475;49.662;9.636;2023-05-25T00:42:01;7.63;85.21
70851;DHT22;58475;49.662;9.636;2023-05-25T00:44:26;7.33;85.97
70851;DHT22;58475;49.662;9.636;2023-05-25T00:46:53;7.12;85.92
70851;DHT22;58475;49.662;9.636;2023-05-25T00:49:19;7.08;86.69
70851;DHT22;58475;49.662;9.636;2023-05-25T00:51:46;7.02;86.37
70851;DHT22;58475;49.662;9.636;2023-05-25T00:54:15;7.19;86.50
70851;DHT22;58475;49.662;9.636;2023-05-25T00:57:00;7.30;86.14
70851;DHT22;58475;49.662;9.636;2023-05-25T00:59:40;7.16;86.52
70851;DHT22;58475;49.662;9.636;2023-05-25T01:02:10;7.09;87.07
70851;DHT22;58475;49.662;9.636;2023-05-25T01:04:43;7.06;87.65
70851;DHT22;58475;49.662;9.636;2023-05-25T01:07:10;7.02;86.87
70851;DHT22;58475;49.662;9.636;2023-05-25T01:09:40;6.82;87.68
70851;DHT22;58475;49.662;9.636;2023-05-25T01:12:08;6.91;87.21
70851;DHT22;58475;49.662;9.636;2023-05-25T01:14:37;6.75;87.55
70851;DHT22;58475;49.662;9.636;2023-05-25T01:17:03;6.73;87.98
70851;DHT22;58475;49.662;9.636;2023-05-25T01:19:30;6.85;87.72
70851;DHT22;58475;49.662;9.636;2023-05-25T01:22:04;6.58;88.20
70851;DHT22;58475;49.662;9.636;2023-05-25T01:24:33;6.70;87.74
70851;DHT22;58475;49.662;9.636;2023-05-25T01:29:32;6.92;87.32
70851;DHT22;58475;49.662;9.636;2023-05-25T01:31:59;6.57;88.01
70851;DHT22;58475;49.662;9.636;2023-05-25T01:34:25;6.43;88.51
70851;DHT22;58475;49.662;9.636;2023-05-25T01:36:51;6.41;88.74
70851;DHT22;58475;49.662;9.636;2023-05-25T01:39:20;6.51;88.72
70851;DHT22;58475;49.662;9.636;2023-05-25T01:41:46;6.47;88.80
70851;DHT22;58475;49.662;9.636;2023-05-25T01:44:11;6.47;88.56
70851;DHT22;58475;49.662;9.636;2023-05-25T01:46:38;6.43;89.14
70851;DHT22;58475;49.662;9.636;2023-05-25T01:54:27;6.81;87.03
70851;DHT22;58475;49.662;9.636;2023-05-25T01:56:56;6.88;86.63
70851;DHT22;58475;49.662;9.636;2023-05-25T01:59:24;6.96;87.31
70851;DHT22;58475;49.662;9.636;2023-05-25T02:01:51;6.85;87.22
70851;DHT22;58475;49.662;9.636;2023-05-25T02:04:19;6.71;88.06
70851;DHT22;58475;49.662;9.636;2023-05-25T02:06:47;6.63;88.26
70851;DHT22;58475;49.662;9.636;2023-05-25T02:09:13;6.68;87.81
70851;DHT22;58475;49.662;9.636;2023-05-25T02:11:38;6.41;88.40
70851;DHT22;58475;49.662;9.636;2023-05-25T02:14:03;6.73;87.76
70851;DHT22;58475;49.662;9.636;2023-05-25T02:16:29;6.30;89.13
70851;DHT22;58475;49.662;9.636;2023-05-25T02:18:54;6.27;89.55
70851;DHT22;58475;49.662;9.636;2023-05-25T02:21:22;6.22;89.03
70851;DHT22;58475;49.662;9.636;2023-05-25T02:23:51;6.22;89.15
70851;DHT22;58475;49.662;9.636;2023-05-25T02:26:18;6.30;89.68
70851;DHT22;58475;49.662;9.636;2023-05-25T02:28:43;5.98;89.70
70851;DHT22;58475;49.662;9.636;2023-05-25T02:31:09;6.24;89.45
70851;DHT22;58475;49.662;9.636;2023-05-25T02:33:34;6.34;88.65
70851;DHT22;58475;49.662;9.636;2023-05-25T02:36:00;6.24;88.96
70851;DHT22;58475;49.662;9.636;2023-05-25T02:38:26;6.26;88.98
70851;DHT22;58475;49.662;9.636;2023-05-25T02:40:52;5.98;89.59
70851;DHT22;58475;49.662;9.636;2023-05-25T02:43:19;5.95;90.13
70851;DHT22;58475;49.662;9.636;2023-05-25T02:45:44;5.98;89.65
70851;DHT22;58475;49.662;9.636;2023-05-25T02:48:10;6.17;89.38
70851;DHT22;58475;49.662;9.636;2023-05-25T02:50:36;6.07;89.51
70851;DHT22;58475;49.662;9.636;2023-05-25T02:53:05;5.96;89.72
70851;DHT22;58475;49.662;9.636;2023-05-25T02:55:30;5.95;89.66
70851;DHT22;58475;49.662;9.636;2023-05-25T02:57:56;5.81;90.09
70851;DHT22;58475;49.662;9.636;2023-05-25T03:00:50;5.92;89.63
70851;DHT22;58475;49.662;9.636;2023-05-25T03:03:15;5.93;89.78
70851;DHT22;58475;49.662;9.636;2023-05-25T03:05:41;6.09;89.02
70851;DHT22;58475;49.662;9.636;2023-05-25T03:08:06;5.88;89.96
70851;DHT22;58475;49.662;9.636;2023-05-25T03:10:32;6.02;89.57
70851;DHT22;58475;49.662;9.636;2023-05-25T03:12:57;6.17;89.23
70851;DHT22;58475;49.662;9.636;2023-05-25T03:15:23;5.96;89.43
70851;DHT22;58475;49.662;9.636;2023-05-25T03:17:49;6.09;89.68
70851;DHT22;58475;49.662;9.636;2023-05-25T03:20:15;5.88;90.62
70851;DHT22;58475;49.662;9.636;2023-05-25T03:22:43;5.82;90.37
70851;DHT22;58475;49.662;9.636;2023-05-25T03:25:09;5.79;89.90
70851;DHT22;58475;49.662;9.636;2023-05-25T03:27:37;5.75;90.64
70851;DHT22;58475;49.662;9.636;2023-05-25T03:30:04;6.05;89.96
70851;DHT22;58475;49.662;9.636;2023-05-25T03:32:30;5.88;90.01
70851;DHT22;58475;49.662;9.636;2023-05-25T03:34:56;5.75;90.09
70851;DHT22;58475;49.662;9.636;2023-05-25T03:37:22;5.81;90.44
70851;DHT22;58475;49.662;9.636;2023-05-25T03:39:47;5.75;90.24
70851;DHT22;58475;49.662;9.636;2023-05-25T03:42:12;5.65;89.82
70851;DHT22;58475;49.662;9.636;2023-05-25T03:44:38;5.64;89.93
70851;DHT22;58475;49.662;9.636;2023-05-25T03:47:04;5.66;90.59
70851;DHT22;58475;49.662;9.636;2023-05-25T03:49:36;5.88;90.11
70851;DHT22;58475;49.662;9.636;2023-05-25T03:52:01;5.99;89.18
70851;DHT22;58475;49.662;9.636;2023-05-25T03:54:27;6.10;89.22
70851;DHT22;58475;49.662;9.636;2023-05-25T03:56:52;6.10;89.02
70851;DHT22;58475;49.662;9.636;2023-05-25T03:59:17;6.16;88.76
70851;DHT22;58475;49.662;9.636;2023-05-25T04:01:43;6.24;89.08
70851;DHT22;58475;49.662;9.636;2023-05-25T04:04:09;6.34;88.71
70851;DHT22;58475;49.662;9.636;2023-05-25T04:06:35;6.22;89.46
70851;DHT22;58475;49.662;9.636;2023-05-25T04:09:05;6.23;89.32
70851;DHT22;58475;49.662;9.636;2023-05-25T04:11:32;6.55;88.43
70851;DHT22;58475;49.662;9.636;2023-05-25T04:13:57;6.60;88.53
70851;DHT22;58475;49.662;9.636;2023-05-25T04:16:26;6.45;88.26
70851;DHT22;58475;49.662;9.636;2023-05-25T04:18:53;6.33;89.33
70851;DHT22;58475;49.662;9.636;2023-05-25T04:21:19;6.44;89.37
70851;DHT22;58475;49.662;9.636;2023-05-25T04:23:44;6.65;89.06
70851;DHT22;58475;49.662;9.636;2023-05-25T04:26:10;6.81;88.52
70851;DHT22;58475;49.662;9.636;2023-05-25T04:28:38;7.05;88.27
70851;DHT22;58475;49.662;9.636;2023-05-25T04:31:40;7.12;87.83
70851;DHT22;58475;49.662;9.636;2023-05-25T04:34:26;7.34;87.37
70851;DHT22;58475;49.662;9.636;2023-05-25T04:37:05;7.25;87.28
70851;DHT22;58475;49.662;9.636;2023-05-25T04:39:33;7.53;86.86
70851;DHT22;58475;49.662;9.636;2023-05-25T04:41:59;7.57;86.95
70851;DHT22;58475;49.662;9.636;2023-05-25T04:44:29;7.57;86.70
70851;DHT22;58475;49.662;9.636;2023-05-25T04:46:56;7.77;86.12
70851;DHT22;58475;49.662;9.636;2023-05-25T04:49:28;7.94;86.16
70851;DHT22;58475;49.662;9.636;2023-05-25T04:51:53;7.73;86.71
70851;DHT22;58475;49.662;9.636;2023-05-25T04:54:19;7.77;86.32
70851;DHT22;58475;49.662;9.636;2023-05-25T04:56:44;8.05;86.18
70851;DHT22;58475;49.662;9.636;2023-05-25T04:59:10;8.39;84.95
70851;DHT22;58475;49.662;9.636;2023-05-25T05:01:35;8.55;84.99
70851;DHT22;58475;49.662;9.636;2023-05-25T05:04:06;8.80;84.60
70851;DHT22;58475;49.662;9.636;2023-05-25T05:06:33;9.01;83.70
70851;DHT22;58475;49.662;9.636;2023-05-25T05:08:59;9.10;83.52
70851;DHT22;58475;49.662;9.636;2023-05-25T05:11:26;9.49;82.88
70851;DHT22;58475;49.662;9.636;2023-05-25T05:13:52;9.20;83.45
70851;DHT22;58475;49.662;9.636;2023-05-25T05:16:17;9.53;83.56
70851;DHT22;58475;49.662;9.636;2023-05-25T05:18:43;9.68;82.45
70851;DHT22;58475;49.662;9.636;2023-05-25T05:21:08;10.16;82.78
70851;DHT22;58475;49.662;9.636;2023-05-25T05:23:34;10.23;81.87
70851;DHT22;58475;49.662;9.636;2023-05-25T05:26:00;10.45;81.08
70851;DHT22;58475;49.662;9.636;2023-05-25T05:28:26;10.54;80.79
70851;DHT22;58475;49.662;9.636;2023-05-25T05:30:52;10.83;79.94
70851;DHT22;58475;49.662;9.636;2023-05-25T05:33:18;10.76;79.75
70851;DHT22;58475;49.662;9.636;2023-05-25T05:35:45;11.11;78.64
70851;DHT22;58475;49.662;9.636;2023-05-25T05:38:20;11.18;78.27
70851;DHT22;58475;49.662;9.636;2023-05-25T05:40:46;11.61;77.53
70851;DHT22;58475;49.662;9.636;2023-05-25T05:43:16;11.82;76.46
70851;DHT22;58475;49.662;9.636;2023-05-25T05:45:42;11.82;76.39
70851;DHT22;58475;49.662;9.636;2023-05-25T05:48:07;11.87;74.72
70851;DHT22;58475;49.662;9.636;2023-05-25T05:50:36;12.15;74.06
70851;DHT22;58475;49.662;9.636;2023-05-25T05:53:03;12.04;74.02
70851;DHT22;58475;49.662;9.636;2023-05-25T05:55:28;12.31;73.82
70851;DHT22;58475;49.662;9.636;2023-05-25T05:57:54;12.46;73.22
70851;DHT22;58475;49.662;9.636;2023-05-25T06:00:20;12.57;72.65
70851;DHT22;58475;49.662;9.636;2023-05-25T06:02:46;12.69;71.29
70851;DHT22;58475;49.662;9.636;2023-05-25T06:05:17;13.15;71.34
70851;DHT22;58475;49.662;9.636;2023-05-25T06:07:43;13.25;70.24
70851;DHT22;58475;49.662;9.636;2023-05-25T06:10:08;13.61;68.13
70851;DHT22;58475;49.662;9.636;2023-05-25T06:12:34;13.69;69.62
70851;DHT22;58475;49.662;9.636;2023-05-25T06:14:59;14.05;70.53
70851;DHT22;58475;49.662;9.636;2023-05-25T06:17:26;14.36;68.43
70851;DHT22;58475;49.662;9.636;2023-05-25T06:19:52;14.57;67.77
70851;DHT22;58475;49.662;9.636;2023-05-25T06:22:18;14.68;67.77
70851;DHT22;58475;49.662;9.636;2023-05-25T06:24:43;14.63;66.23
70851;DHT22;58475;49.662;9.636;2023-05-25T06:27:11;14.74;66.20
70851;DHT22;58475;49.662;9.636;2023-05-25T06:29:37;15.06;66.08
70851;DHT22;58475;49.662;9.636;2023-05-25T06:32:04;15.23;65.82
70851;DHT22;58475;49.662;9.636;2023-05-25T06:34:29;15.33;64.50
70851;DHT22;58475;49.662;9.636;2023-05-25T06:36:55;15.47;65.04
70851;DHT22;58475;49.662;9.636;2023-05-25T06:39:20;15.60;63.79
70851;DHT22;58475;49.662;9.636;2023-05-25T06:41:46;15.39;63.01
70851;DHT22;58475;49.662;9.636;2023-05-25T06:44:21;15.70;63.25
70851;DHT22;58475;49.662;9.636;2023-05-25T06:46:46;15.96;62.07
70851;DHT22;58475;49.662;9.636;2023-05-25T06:49:13;16.15;62.26
70851;DHT22;58475;49.662;9.636;2023-05-25T06:51:38;16.38;61.58
70851;DHT22;58475;49.662;9.636;2023-05-25T06:54:04;16.35;60.57
70851;DHT22;58475;49.662;9.636;2023-05-25T06:56:29;16.38;60.29
70851;DHT22;58475;49.662;9.636;2023-05-25T06:58:55;16.81;61.99
70851;DHT22;58475;49.662;9.636;2023-05-25T07:01:20;16.56;59.58
70851;DHT22;58475;49.662;9.636;2023-05-25T07:03:46;16.70;60.16
70851;DHT22;58475;49.662;9.636;2023-05-25T07:06:11;17.06;60.00
70851;DHT22;58475;49.662;9.636;2023-05-25T07:08:37;16.94;60.49
70851;DHT22;58475;49.662;9.636;2023-05-25T07:11:02;17.37;60.24
70851;DHT22;58475;49.662;9.636;2023-05-25T07:13:28;17.21;58.43
70851;DHT22;58475;49.662;9.636;2023-05-25T07:15:53;17.78;57.89
70851;DHT22;58475;49.662;9.636;2023-05-25T07:18:19;18.02;57.35
70851;DHT22;58475;49.662;9.636;2023-05-25T07:20:44;18.24;57.57
70851;DHT22;58475;49.662;9.636;2023-05-25T07:23:10;18.36;58.07
70851;DHT22;58475;49.662;9.636;2023-05-25T07:25:40;18.46;57.88
70851;DHT22;58475;49.662;9.636;2023-05-25T07:28:06;18.67;56.98
70851;DHT22;58475;49.662;9.636;2023-05-25T07:30:32;18.29;56.09
70851;DHT22;58475;49.662;9.636;2023-05-25T07:32:57;18.34;57.06
70851;DHT22;58475;49.662;9.636;2023-05-25T07:35:23;18.27;56.39
70851;DHT22;58475;49.662;9.636;2023-05-25T07:37:59;18.67;55.35
70851;DHT22;58475;49.662;9.636;2023-05-25T07:40:26;18.27;58.22
70851;DHT22;58475;49.662;9.636;2023-05-25T07:43:02;19.08;55.57
70851;DHT22;58475;49.662;9.636;2023-05-25T07:45:29;18.24;55.23
70851;DHT22;58475;49.662;9.636;2023-05-25T07:48:02;18.72;54.84
70851;DHT22;58475;49.662;9.636;2023-05-25T07:50:31;18.30;54.29
70851;DHT22;58475;49.662;9.636;2023-05-25T07:53:24;18.40;55.48
70851;DHT22;58475;49.662;9.636;2023-05-25T07:57:21;19.45;53.03
70851;DHT22;58475;49.662;9.636;2023-05-25T08:01:39;19.40;53.64
70851;DHT22;58475;49.662;9.636;2023-05-25T08:05:40;19.77;54.35
70851;DHT22;58475;49.662;9.636;2023-05-25T08:17:21;20.61;53.43
70851;DHT22;58475;49.662;9.636;2023-05-25T08:19:48;20.61;52.54
70851;DHT22;58475;49.662;9.636;2023-05-25T08:22:13;20.55;51.64
70851;DHT22;58475;49.662;9.636;2023-05-25T08:24:38;20.87;50.86
70851;DHT22;58475;49.662;9.636;2023-05-25T08:27:04;20.99;52.18
70851;DHT22;58475;49.662;9.636;2023-05-25T08:29:29;21.23;50.91
70851;DHT22;58475;49.662;9.636;2023-05-25T08:31:55;21.37;49.80
70851;DHT22;58475;49.662;9.636;2023-05-25T08:34:20;21.47;50.17
70851;DHT22;58475;49.662;9.636;2023-05-25T08:36:46;20.39;52.25
70851;DHT22;58475;49.662;9.636;2023-05-25T08:39:11;21.02;50.65
70851;DHT22;58475;49.662;9.636;2023-05-25T08:41:42;21.24;51.29
70851;DHT22;58475;49.662;9.636;2023-05-25T08:44:08;21.04;50.83
70851;DHT22;58475;49.662;9.636;2023-05-25T08:46:34;21.06;51.86
70851;DHT22;58475;49.662;9.636;2023-05-25T08:49:03;21.48;49.77
70851;DHT22;58475;49.662;9.636;2023-05-25T08:51:36;21.35;50.24
70851;DHT22;58475;49.662;9.636;2023-05-25T08:54:09;21.40;51.15
70851;DHT22;58475;49.662;9.636;2023-05-25T08:56:54;21.65;50.76
70851;DHT22;58475;49.662;9.636;2023-05-25T08:59:27;21.66;49.49
70851;DHT22;58475;49.662;9.636;2023-05-25T09:04:42;21.86;50.12
70851;DHT22;58475;49.662;9.636;2023-05-25T09:07:08;21.91;48.36
70851;DHT22;58475;49.662;9.636;2023-05-25T09:09:34;22.26;47.96
70851;DHT22;58475;49.662;9.636;2023-05-25T09:12:02;22.16;48.42
70851;DHT22;58475;49.662;9.636;2023-05-25T09:14:29;21.96;48.59
70851;DHT22;58475;49.662;9.636;2023-05-25T09:16:55;22.22;48.21
70851;DHT22;58475;49.662;9.636;2023-05-25T09:19:25;21.64;50.15
70851;DHT22;58475;49.662;9.636;2023-05-25T09:21:50;21.96;49.79
70851;DHT22;58475;49.662;9.636;2023-05-25T09:24:22;21.98;47.92
70851;DHT22;58475;49.662;9.636;2023-05-25T09:26:48;21.68;49.08
70851;DHT22;58475;49.662;9.636;2023-05-25T09:29:14;22.39;49.10
70851;DHT22;58475;49.662;9.636;2023-05-25T09:31:40;22.43;48.12
70851;DHT22;58475;49.662;9.636;2023-05-25T09:34:12;22.87;47.58
70851;DHT22;58475;49.662;9.636;2023-05-25T09:36:40;22.84;47.37
70851;DHT22;58475;49.662;9.636;2023-05-25T09:39:09;23.30;47.67
70851;DHT22;58475;49.662;9.636;2023-05-25T09:41:43;23.01;46.68
70851;DHT22;58475;49.662;9.636;2023-05-25T09:44:09;23.35;47.46
70851;DHT22;58475;49.662;9.636;2023-05-25T09:46:35;23.16;46.38
70851;DHT22;58475;49.662;9.636;2023-05-25T09:49:05;23.09;48.38
70851;DHT22;58475;49.662;9.636;2023-05-25T09:51:32;23.73;48.03
70851;DHT22;58475;49.662;9.636;2023-05-25T09:53:59;23.58;46.38
70851;DHT22;58475;49.662;9.636;2023-05-25T09:56:26;23.42;47.08
70851;DHT22;58475;49.662;9.636;2023-05-25T09:58:52;23.30;47.49
70851;DHT22;58475;49.662;9.636;2023-05-25T10:01:17;23.35;45.86
70851;DHT22;58475;49.662;9.636;2023-05-25T10:03:46;23.29;46.04
70851;DHT22;58475;49.662;9.636;2023-05-25T10:06:13;23.65;46.64
70851;DHT22;58475;49.662;9.636;2023-05-25T10:08:39;23.80;45.97
70851;DHT22;58475;49.662;9.636;2023-05-25T10:11:05;23.32;45.31
70851;DHT22;58475;49.662;9.636;2023-05-25T10:13:31;23.28;45.75
70851;DHT22;58475;49.662;9.636;2023-05-25T10:15:58;23.65;46.79
70851;DHT22;58475;49.662;9.636;2023-05-25T10:18:28;23.48;46.51
70851;DHT22;58475;49.662;9.636;2023-05-25T10:21:01;23.89;45.48
70851;DHT22;58475;49.662;9.636;2023-05-25T10:23:32;24.07;46.29
70851;DHT22;58475;49.662;9.636;2023-05-25T10:26:00;24.18;46.08
70851;DHT22;58475;49.662;9.636;2023-05-25T10:28:28;23.62;48.89
70851;DHT22;58475;49.662;9.636;2023-05-25T10:30:58;23.83;45.85
70851;DHT22;58475;49.662;9.636;2023-05-25T10:33:24;24.27;45.91
70851;DHT22;58475;49.662;9.636;2023-05-25T10:35:51;23.89;46.30
70851;DHT22;58475;49.662;9.636;2023-05-25T10:38:18;23.59;44.07
70851;DHT22;58475;49.662;9.636;2023-05-25T10:40:45;24.08;45.23
70851;DHT22;58475;49.662;9.636;2023-05-25T10:43:16;24.32;43.90
70851;DHT22;58475;49.662;9.636;2023-05-25T10:45:42;24.00;45.37
70851;DHT22;58475;49.662;9.636;2023-05-25T10:48:08;24.55;46.98
70851;DHT22;58475;49.662;9.636;2023-05-25T10:50:34;24.49;45.98
70851;DHT22;58475;49.662;9.636;2023-05-25T10:53:03;24.55;44.85
70851;DHT22;58475;49.662;9.636;2023-05-25T10:55:41;24.59;42.74
70851;DHT22;58475;49.662;9.636;2023-05-25T10:58:11;24.38;44.36
70851;DHT22;58475;49.662;9.636;2023-05-25T11:00:37;24.35;43.81
70851;DHT22;58475;49.662;9.636;2023-05-25T11:03:03;24.34;45.68
70851;DHT22;58475;49.662;9.636;2023-05-25T11:07:59;24.89;45.12
70851;DHT22;58475;49.662;9.636;2023-05-25T11:10:51;24.88;45.42
70851;DHT22;58475;49.662;9.636;2023-05-25T11:15:47;24.92;45.83
70851;DHT22;58475;49.662;9.636;2023-05-25T11:18:15;25.07;45.54
70851;DHT22;58475;49.662;9.636;2023-05-25T11:20:40;25.30;42.22
70851;DHT22;58475;49.662;9.636;2023-05-25T11:23:21;25.30;43.28
70851;DHT22;58475;49.662;9.636;2023-05-25T11:25:47;25.12;43.62
70851;DHT22;58475;49.662;9.636;2023-05-25T11:28:14;25.23;43.13
70851;DHT22;58475;49.662;9.636;2023-05-25T11:30:40;25.02;44.38
70851;DHT22;58475;49.662;9.636;2023-05-25T11:33:06;24.96;42.42
70851;DHT22;58475;49.662;9.636;2023-05-25T11:35:33;24.68;44.11
70851;DHT22;58475;49.662;9.636;2023-05-25T11:38:03;23.81;45.13
70851;DHT22;58475;49.662;9.636;2023-05-25T11:40:30;24.28;45.91
70851;DHT22;58475;49.662;9.636;2023-05-25T11:42:59;24.72;43.42
70851;DHT22;58475;49.662;9.636;2023-05-25T11:45:27;24.78;43.85
70851;DHT22;58475;49.662;9.636;2023-05-25T11:47:53;24.86;43.65
70851;DHT22;58475;49.662;9.636;2023-05-25T11:50:18;24.93;44.72
70851;DHT22;58475;49.662;9.636;2023-05-25T11:52:44;25.17;43.84
70851;DHT22;58475;49.662;9.636;2023-05-25T11:55:13;25.15;41.85
70851;DHT22;58475;49.662;9.636;2023-05-25T11:57:39;25.36;43.19
70851;DHT22;58475;49.662;9.636;2023-05-25T12:00:05;24.68;45.64
70851;DHT22;58475;49.662;9.636;2023-05-25T12:02:39;24.97;42.46
70851;DHT22;58475;49.662;9.636;2023-05-25T12:05:06;24.72;43.72
70851;DHT22;58475;49.662;9.636;2023-05-25T12:07:31;25.22;43.97
70851;DHT22;58475;49.662;9.636;2023-05-25T12:10:08;25.26;41.78
70851;DHT22;58475;49.662;9.636;2023-05-25T12:12:47;25.40;42.45
70851;DHT22;58475;49.662;9.636;2023-05-25T12:15:20;25.27;42.49
70851;DHT22;58475;49.662;9.636;2023-05-25T12:17:46;25.19;43.51
70851;DHT22;58475;49.662;9.636;2023-05-25T12:20:13;24.92;42.49
70851;DHT22;58475;49.662;9.636;2023-05-25T12:22:40;25.41;44.12
70851;DHT22;58475;49.662;9.636;2023-05-25T12:25:07;25.27;41.96
70851;DHT22;58475;49.662;9.636;2023-05-25T12:27:32;25.37;43.31
70851;DHT22;58475;49.662;9.636;2023-05-25T12:29:58;25.38;42.22
70851;DHT22;58475;49.662;9.636;2023-05-25T12:32:24;25.94;44.27
70851;DHT22;58475;49.662;9.636;2023-05-25T12:34:49;25.92;41.15
70851;DHT22;58475;49.662;9.636;2023-05-25T12:37:19;25.68;40.86
70851;DHT22;58475;49.662;9.636;2023-05-25T12:39:45;25.77;42.31
70851;DHT22;58475;49.662;9.636;2023-05-25T12:42:15;25.87;41.43
70851;DHT22;58475;49.662;9.636;2023-05-25T12:44:42;25.73;44.05
70851;DHT22;58475;49.662;9.636;2023-05-25T12:47:15;26.04;41.26
70851;DHT22;58475;49.662;9.636;2023-05-25T12:49:42;25.34;39.99
70851;DHT22;58475;49.662;9.636;2023-05-25T12:52:09;25.89;41.02
70851;DHT22;58475;49.662;9.636;2023-05-25T12:54:45;26.01;41.52
70851;DHT22;58475;49.662;9.636;2023-05-25T12:57:15;25.88;39.58
70851;DHT22;58475;49.662;9.636;2023-05-25T12:59:45;25.41;40.61
70851;DHT22;58475;49.662;9.636;2023-05-25T13:02:11;25.60;40.31
70851;DHT22;58475;49.662;9.636;2023-05-25T13:04:39;26.09;39.77
70851;DHT22;58475;49.662;9.636;2023-05-25T13:07:07;25.75;39.05
70851;DHT22;58475;49.662;9.636;2023-05-25T13:09:33;25.13;40.97
70851;DHT22;58475;49.662;9.636;2023-05-25T13:11:59;25.80;40.22
70851;DHT22;58475;49.662;9.636;2023-05-25T13:14:25;25.68;39.48
70851;DHT22;58475;49.662;9.636;2023-05-25T13:16:52;25.71;40.13
70851;DHT22;58475;49.662;9.636;2023-05-25T13:19:20;25.92;40.74
70851;DHT22;58475;49.662;9.636;2023-05-25T13:21:45;26.16;39.03
70851;DHT22;58475;49.662;9.636;2023-05-25T13:24:12;25.80;40.04
70851;DHT22;58475;49.662;9.636;2023-05-25T13:26:37;26.01;39.25
70851;DHT22;58475;49.662;9.636;2023-05-25T13:29:02;25.26;40.96
70851;DHT22;58475;49.662;9.636;2023-05-25T13:31:28;25.99;41.31
70851;DHT22;58475;49.662;9.636;2023-05-25T13:33:56;25.02;41.02
70851;DHT22;58475;49.662;9.636;2023-05-25T13:36:23;25.89;44.38
70851;DHT22;58475;49.662;9.636;2023-05-25T13:38:49;26.09;41.21
70851;DHT22;58475;49.662;9.636;2023-05-25T13:41:14;25.20;43.06
70851;DHT22;58475;49.662;9.636;2023-05-25T13:43:40;25.74;42.64
70851;DHT22;58475;49.662;9.636;2023-05-25T13:46:06;26.22;42.64
70851;DHT22;58475;49.662;9.636;2023-05-25T13:48:31;26.72;43.11
70851;DHT22;58475;49.662;9.636;2023-05-25T13:50:57;26.66;41.04
70851;DHT22;58475;49.662;9.636;2023-05-25T13:53:24;26.86;40.66
70851;DHT22;58475;49.662;9.636;2023-05-25T13:55:49;26.45;40.89
70851;DHT22;58475;49.662;9.636;2023-05-25T13:58:15;26.31;40.35
70851;DHT22;58475;49.662;9.636;2023-05-25T14:00:40;26.67;40.89
70851;DHT22;58475;49.662;9.636;2023-05-25T14:03:05;26.09;42.53
70851;DHT22;58475;49.662;9.636;2023-05-25T14:05:31;26.82;42.72
70851;DHT22;58475;49.662;9.636;2023-05-25T14:07:56;26.37;40.72
70851;DHT22;58475;49.662;9.636;2023-05-25T14:10:25;26.60;42.10
70851;DHT22;58475;49.662;9.636;2023-05-25T14:12:50;25.66;43.53
70851;DHT22;58475;49.662;9.636;2023-05-25T14:15:15;25.95;41.79
70851;DHT22;58475;49.662;9.636;2023-05-25T14:17:41;26.60;41.97
70851;DHT22;58475;49.662;9.636;2023-05-25T14:20:06;26.60;40.91
70851;DHT22;58475;49.662;9.636;2023-05-25T14:22:32;26.46;39.70
70851;DHT22;58475;49.662;9.636;2023-05-25T14:24:57;26.35;40.45
70851;DHT22;58475;49.662;9.636;2023-05-25T14:27:23;26.31;41.46
70851;DHT22;58475;49.662;9.636;2023-05-25T14:29:49;25.88;39.64
70851;DHT22;58475;49.662;9.636;2023-05-25T14:32:16;25.68;42.31
70851;DHT22;58475;49.662;9.636;2023-05-25T14:34:42;25.92;39.32
70851;DHT22;58475;49.662;9.636;2023-05-25T14:37:08;26.24;40.70
70851;DHT22;58475;49.662;9.636;2023-05-25T14:39:33;25.96;42.24
70851;DHT22;58475;49.662;9.636;2023-05-25T14:42:00;26.11;42.71
70851;DHT22;58475;49.662;9.636;2023-05-25T14:44:26;26.55;39.79
70851;DHT22;58475;49.662;9.636;2023-05-25T14:46:52;26.16;39.95
70851;DHT22;58475;49.662;9.636;2023-05-25T14:49:17;26.08;40.56
70851;DHT22;58475;49.662;9.636;2023-05-25T14:51:43;26.80;39.86
70851;DHT22;58475;49.662;9.636;2023-05-25T14:54:08;26.55;39.00
70851;DHT22;58475;49.662;9.636;2023-05-25T14:56:35;26.59;38.33
70851;DHT22;58475;49.662;9.636;2023-05-25T14:59:00;26.47;40.46
70851;DHT22;58475;49.662;9.636;2023-05-25T15:01:26;26.79;40.90
70851;DHT22;58475;49.662;9.636;2023-05-25T15:03:53;26.88;39.83
70851;DHT22;58475;49.662;9.636;2023-05-25T15:06:19;26.59;39.20
70851;DHT22;58475;49.662;9.636;2023-05-25T15:08:44;26.50;40.55
70851;DHT22;58475;49.662;9.636;2023-05-25T15:11:09;27.45;39.49
70851;DHT22;58475;49.662;9.636;2023-05-25T15:13:35;26.77;39.70
70851;DHT22;58475;49.662;9.636;2023-05-25T15:16:00;26.31;39.77
70851;DHT22;58475;49.662;9.636;2023-05-25T15:18:26;25.85;39.68
70851;DHT22;58475;49.662;9.636;2023-05-25T15:20:51;25.89;39.92
70851;DHT22;58475;49.662;9.636;2023-05-25T15:23:17;25.64;40.72
70851;DHT22;58475;49.662;9.636;2023-05-25T15:25:42;25.82;40.27
70851;DHT22;58475;49.662;9.636;2023-05-25T15:28:07;25.66;39.73
70851;DHT22;58475;49.662;9.636;2023-05-25T15:30:33;25.75;39.50
70851;DHT22;58475;49.662;9.636;2023-05-25T15:32:59;26.32;40.34
70851;DHT22;58475;49.662;9.636;2023-05-25T15:35:25;26.08;41.23
70851;DHT22;58475;49.662;9.636;2023-05-25T15:37:58;25.66;40.05
70851;DHT22;58475;49.662;9.636;2023-05-25T15:40:23;25.92;39.63
70851;DHT22;58475;49.662;9.636;2023-05-25T15:42:49;25.82;40.56
70851;DHT22;58475;49.662;9.636;2023-05-25T15:45:14;26.08;41.27
70851;DHT22;58475;49.662;9.636;2023-05-25T15:47:40;26.12;38.61
70851;DHT22;58475;49.662;9.636;2023-05-25T15:50:06;25.91;39.89
70851;DHT22;58475;49.662;9.636;2023-05-25T15:52:31;25.98;40.60
70851;DHT22;58475;49.662;9.636;2023-05-25T15:54:57;25.87;40.62
70851;DHT22;58475;49.662;9.636;2023-05-25T15:57:22;25.28;41.15
70851;DHT22;58475;49.662;9.636;2023-05-25T15:59:48;25.46;40.15
70851;DHT22;58475;49.662;9.636;2023-05-25T16:02:13;25.38;41.14
70851;DHT22;58475;49.662;9.636;2023-05-25T16:04:39;25.48;41.12